KAMG/AMG METAR and TAF weather

Enter ICAO airport designator
Station Type Date Time Source
KAMG METAR 2021/04/18 01:53 UTC NOAA

KAMG 180153Z AUTO 25003KT 10SM BKN080 OVC100 18/17 A2986 RMK AO2 SLP108 T01780167


Station Type Date Time Source
KAMG Decoded METAR 2021/04/18 01:53 UTC NOAA

ALMA BACON COUNTY AIRPORT, GA, United States (KAMG) 31-32N 82-30W 59M
Apr 17, 2021 - 09:53 PM EDT / 2021.04.18 0153 UTC
Wind: from the WSW (250 degrees) at 3 MPH (3 KT):0
Visibility: 10 mile(s):0
Sky conditions: overcast
Temperature: 64.0 F (17.8 C)
Dew Point: 62.1 F (16.7 C)
Relative Humidity: 93%
Pressure (altimeter): 29.86 in. Hg (1011 hPa)
ob: KAMG 180153Z AUTO 25003KT 10SM BKN080 OVC100 18/17 A2986 RMK AO2 SLP108 T01780167
cycle: 2

Station Type Date Time Source
KAMG TAF UTC NOAA

Error!

Example: see airport list